Time;durP1;ratioP1;P1;durP2;ratioP2;P2;SDS_P1;SDS_P2;PMS_P1;PMS_P2;Temp;Humidity;BMP_temperature;BMP_pressure;BME280_temperature;BME280_humidity;BME280_pressure;Samples;Min_cycle;Max_cycle;Signal;HPM_P1;HPM_P2
2024/02/17 00:01:19;;;;;;;9.57;6.65;;;11.40;99.90;;;;;;5068784;28;21395;-58
2024/02/17 00:03:44;;;;;;;8.43;6.38;;;11.40;99.90;;;;;;5071481;28;20025;-58
2024/02/17 00:06:10;;;;;;;10.00;7.25;;;11.40;99.90;;;;;;5069282;28;20032;-58
2024/02/17 00:08:35;;;;;;;9.13;6.88;;;11.40;99.90;;;;;;5073384;28;20437;-58
2024/02/17 00:11:03;;;;;;;10.05;7.13;;;11.50;99.90;;;;;;5069955;28;20389;-58
2024/02/17 00:13:28;;;;;;;11.20;7.30;;;11.40;99.90;;;;;;5074487;28;20022;-58
2024/02/17 00:15:54;;;;;;;10.90;7.97;;;11.40;99.90;;;;;;5067578;28;20028;-58
2024/02/17 00:18:23;;;;;;;11.43;8.25;;;11.40;99.90;;;;;;5068312;28;20393;-58
2024/02/17 00:20:48;;;;;;;12.18;8.52;;;11.40;99.90;;;;;;5066895;28;20028;-58
2024/02/17 00:23:14;;;;;;;13.55;8.95;;;11.40;99.90;;;;;;5073490;28;20071;-58
2024/02/17 00:25:40;;;;;;;14.55;8.75;;;11.40;99.90;;;;;;5074886;28;20069;-58
2024/02/17 00:28:06;;;;;;;11.30;7.55;;;11.40;99.90;;;;;;5074385;28;20028;-58
2024/02/17 00:30:31;;;;;;;13.85;9.82;;;11.30;99.90;;;;;;5073028;28;20023;-59
2024/02/17 00:32:56;;;;;;;12.63;9.00;;;11.40;99.90;;;;;;5071229;28;20078;-58
2024/02/17 00:35:22;;;;;;;17.23;9.77;;;11.30;99.90;;;;;;5076361;28;20027;-58
2024/02/17 00:37:47;;;;;;;12.15;8.98;;;11.40;99.90;;;;;;5067172;28;20144;-58
2024/02/17 00:40:13;;;;;;;13.60;9.35;;;11.30;99.90;;;;;;5069291;28;20036;-58
2024/02/17 00:42:40;;;;;;;12.07;8.63;;;11.30;99.90;;;;;;5074610;28;20012;-58
2024/02/17 00:45:06;;;;;;;13.55;8.85;;;11.30;99.90;;;;;;5073804;28;20013;-58
2024/02/17 00:47:31;;;;;;;17.23;9.07;;;11.30;99.90;;;;;;5071520;28;20445;-58
2024/02/17 00:49:57;;;;;;;17.75;10.18;;;11.30;99.90;;;;;;5070765;28;20040;-58
2024/02/17 00:52:22;;;;;;;16.08;9.43;;;11.30;99.90;;;;;;5073301;28;20044;-58
2024/02/17 00:54:48;;;;;;;15.55;9.52;;;11.30;99.90;;;;;;5067369;28;20021;-58
2024/02/17 00:57:13;;;;;;;18.35;9.55;;;11.30;99.90;;;;;;5066160;28;20028;-58
2024/02/17 00:59:38;;;;;;;19.63;11.50;;;11.30;99.90;;;;;;5070517;28;20055;-58
2024/02/17 01:02:04;;;;;;;22.60;11.93;;;11.30;99.90;;;;;;5073278;28;20048;-58
2024/02/17 01:04:30;;;;;;;13.80;9.82;;;11.30;99.90;;;;;;5069796;28;20521;-58
2024/02/17 01:06:55;;;;;;;15.20;9.55;;;11.30;99.90;;;;;;5067720;28;20059;-58
2024/02/17 01:09:21;;;;;;;22.55;13.18;;;11.30;99.90;;;;;;5072601;28;20070;-58
2024/02/17 01:11:46;;;;;;;17.80;10.95;;;11.30;99.90;;;;;;5068046;28;20068;-58
2024/02/17 01:14:12;;;;;;;19.98;11.50;;;11.20;99.90;;;;;;5065888;28;20037;-59
2024/02/17 01:16:37;;;;;;;21.52;12.23;;;11.30;99.90;;;;;;5072954;28;20028;-58
2024/02/17 01:19:03;;;;;;;18.33;12.13;;;11.30;99.90;;;;;;5071386;28;20025;-58
2024/02/17 01:21:31;;;;;;;19.58;12.52;;;11.20;99.90;;;;;;5070993;28;20575;-59
2024/02/17 01:23:58;;;;;;;18.58;12.05;;;11.20;99.90;;;;;;5069556;28;20423;-58
2024/02/17 01:26:23;;;;;;;25.58;13.18;;;11.20;99.90;;;;;;5072256;28;20028;-58
2024/02/17 01:28:49;;;;;;;22.00;13.43;;;11.20;99.90;;;;;;5069888;28;20032;-58
2024/02/17 01:31:14;;;;;;;27.63;13.15;;;11.20;99.90;;;;;;5073655;28;20028;-58
2024/02/17 01:33:40;;;;;;;22.33;12.05;;;11.20;99.90;;;;;;5068666;28;20021;-58
2024/02/17 01:36:13;;;;;;;20.70;12.63;;;11.20;99.90;;;;;;5069965;28;20024;-58
2024/02/17 01:38:38;;;;;;;18.40;11.32;;;11.20;99.90;;;;;;5067159;28;20029;-58
2024/02/17 01:41:04;;;;;;;19.77;12.43;;;11.20;99.90;;;;;;5072011;28;20367;-58
2024/02/17 01:43:29;;;;;;;22.00;12.52;;;11.20;99.90;;;;;;5071461;28;20087;-58
2024/02/17 01:45:55;;;;;;;22.80;12.98;;;11.20;99.90;;;;;;5071554;28;20032;-59
2024/02/17 01:48:21;;;;;;;25.40;13.52;;;11.20;99.90;;;;;;5071382;28;20458;-59
2024/02/17 01:50:47;;;;;;;24.55;12.90;;;11.20;99.90;;;;;;5073746;28;20146;-59
2024/02/17 01:53:13;;;;;;;23.52;13.75;;;11.20;99.90;;;;;;5074136;28;20086;-59
2024/02/17 01:55:39;;;;;;;24.10;13.15;;;11.10;99.90;;;;;;5073906;28;20020;-59
2024/02/17 01:58:05;;;;;;;22.42;14.20;;;11.10;99.90;;;;;;5072989;28;20031;-58
2024/02/17 02:00:32;;;;;;;19.20;12.35;;;11.10;99.90;;;;;;5074917;28;20042;-59
2024/02/17 02:02:58;;;;;;;24.55;14.10;;;11.10;99.90;;;;;;5075263;28;20017;-58
2024/02/17 02:05:24;;;;;;;22.50;13.40;;;11.10;99.90;;;;;;5074528;28;20393;-58
2024/02/17 02:07:49;;;;;;;24.23;14.35;;;11.10;99.90;;;;;;5070574;28;20029;-58
2024/02/17 02:10:15;;;;;;;26.75;13.10;;;11.10;99.90;;;;;;5074659;28;20052;-58
2024/02/17 02:12:41;;;;;;;21.30;14.10;;;11.10;99.90;;;;;;5072667;28;20020;-58
2024/02/17 02:15:11;;;;;;;23.10;14.80;;;11.10;99.90;;;;;;5070079;28;20320;-58
2024/02/17 02:17:37;;;;;;;21.20;12.82;;;11.00;99.90;;;;;;5083456;28;20117;-58
2024/02/17 02:20:04;;;;;;;23.27;14.57;;;11.10;99.90;;;;;;5071793;28;20385;-58
2024/02/17 02:22:30;;;;;;;22.40;13.63;;;11.00;99.90;;;;;;5071257;28;20024;-58
2024/02/17 02:24:58;;;;;;;20.58;12.32;;;11.00;99.90;;;;;;5071765;28;20028;-58
2024/02/17 02:27:25;;;;;;;23.05;14.07;;;11.00;99.90;;;;;;5069546;28;20036;-58
2024/02/17 02:29:52;;;;;;;23.50;14.80;;;10.90;99.90;;;;;;5069955;28;20284;-59
2024/02/17 02:32:18;;;;;;;24.70;14.73;;;10.80;99.90;;;;;;5070103;28;20046;-59
2024/02/17 02:34:44;;;;;;;25.95;14.48;;;10.80;99.90;;;;;;5068847;28;20793;-58
2024/02/17 02:37:09;;;;;;;24.38;13.98;;;10.70;99.90;;;;;;5072073;28;20033;-59
2024/02/17 02:39:35;;;;;;;22.58;13.70;;;10.60;99.90;;;;;;5070255;28;20551;-58
2024/02/17 02:42:01;;;;;;;24.77;14.82;;;10.60;99.90;;;;;;5068574;28;20059;-58
2024/02/17 02:44:26;;;;;;;21.08;13.23;;;10.50;99.90;;;;;;5069653;28;20052;-59
2024/02/17 02:46:52;;;;;;;22.63;13.27;;;10.50;99.90;;;;;;5070511;28;20086;-59
2024/02/17 02:49:17;;;;;;;22.02;12.68;;;10.40;99.90;;;;;;5071913;28;20431;-58
2024/02/17 02:51:43;;;;;;;23.60;13.65;;;10.40;99.90;;;;;;5072952;28;20028;-58
2024/02/17 02:54:08;;;;;;;25.42;14.48;;;10.30;99.90;;;;;;5069408;28;20047;-58
2024/02/17 02:56:34;;;;;;;27.02;14.52;;;10.30;99.90;;;;;;5071304;28;20313;-58
2024/02/17 02:58:59;;;;;;;25.08;13.80;;;10.30;99.90;;;;;;5071574;28;20387;-58
2024/02/17 03:01:25;;;;;;;25.92;16.27;;;10.20;99.90;;;;;;5068812;28;20041;-58
2024/02/17 03:03:50;;;;;;;25.45;14.98;;;10.20;99.90;;;;;;5072634;28;20038;-59
2024/02/17 03:06:16;;;;;;;32.83;14.65;;;10.10;99.90;;;;;;5069118;28;20025;-58
2024/02/17 03:08:41;;;;;;;28.17;14.63;;;10.10;99.90;;;;;;5069483;28;20371;-58
2024/02/17 03:11:07;;;;;;;27.30;15.48;;;10.10;99.90;;;;;;5069382;28;20539;-58
2024/02/17 03:13:36;;;;;;;25.40;15.05;;;10.10;99.90;;;;;;5072114;28;20051;-58
2024/02/17 03:16:01;;;;;;;22.80;13.98;;;10.10;99.90;;;;;;5070709;28;20047;-58
2024/02/17 03:18:27;;;;;;;23.02;13.88;;;10.00;99.90;;;;;;5069008;28;20483;-58
2024/02/17 03:20:53;;;;;;;20.45;13.15;;;10.10;99.90;;;;;;5068973;28;20025;-58
2024/02/17 03:23:19;;;;;;;23.75;14.13;;;10.10;99.90;;;;;;5068910;28;20066;-58
2024/02/17 03:25:44;;;;;;;25.05;14.15;;;10.10;99.90;;;;;;5070190;28;20396;-59
2024/02/17 03:28:10;;;;;;;23.17;13.15;;;10.10;99.90;;;;;;5069585;28;20627;-58
2024/02/17 03:30:35;;;;;;;28.08;13.95;;;10.20;99.90;;;;;;5069162;28;20031;-58
2024/02/17 03:33:01;;;;;;;26.60;13.70;;;10.20;99.90;;;;;;5069127;28;20028;-58
2024/02/17 03:35:26;;;;;;;22.10;13.82;;;10.10;99.90;;;;;;5070794;28;20024;-58
2024/02/17 03:37:52;;;;;;;25.75;14.50;;;10.10;99.90;;;;;;5070020;28;20115;-58
2024/02/17 03:40:20;;;;;;;24.73;14.30;;;10.10;99.90;;;;;;5069463;28;20063;-59
2024/02/17 03:42:46;;;;;;;25.10;13.95;;;10.10;99.90;;;;;;5070618;28;20059;-59
2024/02/17 03:45:12;;;;;;;25.90;12.70;;;10.10;99.90;;;;;;5069630;28;20046;-59
2024/02/17 03:47:37;;;;;;;26.40;13.30;;;10.10;99.90;;;;;;5071773;28;20385;-59
2024/02/17 03:50:03;;;;;;;23.05;13.00;;;10.10;99.90;;;;;;5068044;28;20123;-59
2024/02/17 03:52:28;;;;;;;23.13;13.15;;;10.10;99.90;;;;;;5070575;28;20537;-59
2024/02/17 03:54:54;;;;;;;24.42;13.82;;;10.10;99.90;;;;;;5069399;28;20034;-59
2024/02/17 03:57:20;;;;;;;24.48;13.68;;;10.10;99.90;;;;;;5071014;28;20020;-59
2024/02/17 03:59:45;;;;;;;26.38;14.63;;;10.10;99.90;;;;;;5070200;28;20031;-59
2024/02/17 04:02:11;;;;;;;31.52;15.35;;;10.10;99.90;;;;;;5069629;28;20328;-59
2024/02/17 04:04:36;;;;;;;29.38;15.77;;;10.10;99.90;;;;;;5070636;28;20024;-59
2024/02/17 04:07:02;;;;;;;24.88;16.55;;;10.10;99.90;;;;;;5069663;28;20036;-59
2024/02/17 04:09:27;;;;;;;27.98;16.15;;;10.10;99.90;;;;;;5069221;28;20035;-59
2024/02/17 04:11:53;;;;;;;27.13;15.88;;;10.10;99.90;;;;;;5067998;28;20032;-58
2024/02/17 04:14:18;;;;;;;28.02;15.77;;;10.10;99.90;;;;;;5068684;28;20474;-58
2024/02/17 04:16:44;;;;;;;27.05;15.90;;;10.10;99.90;;;;;;5068135;28;20079;-58
2024/02/17 04:19:09;;;;;;;26.65;16.88;;;10.10;99.90;;;;;;5067660;28;20565;-58
2024/02/17 04:21:35;;;;;;;27.20;16.13;;;10.20;99.90;;;;;;5068593;28;20297;-58
2024/02/17 04:24:00;;;;;;;25.88;16.15;;;10.20;99.90;;;;;;5068431;28;20063;-58
2024/02/17 04:26:26;;;;;;;26.80;15.65;;;10.20;99.90;;;;;;5067108;28;20020;-58
2024/02/17 04:28:51;;;;;;;26.50;15.50;;;10.20;99.90;;;;;;5069589;28;20028;-58
2024/02/17 04:31:17;;;;;;;29.70;16.33;;;10.20;99.90;;;;;;5068670;28;20108;-58
2024/02/17 04:33:43;;;;;;;25.52;15.82;;;10.20;99.90;;;;;;5068866;28;20028;-58
2024/02/17 04:36:09;;;;;;;32.13;15.88;;;10.20;99.90;;;;;;5067826;28;20328;-58
2024/02/17 04:38:35;;;;;;;22.95;14.35;;;10.20;99.90;;;;;;5068905;28;20029;-58
2024/02/17 04:41:01;;;;;;;24.08;14.15;;;10.20;99.90;;;;;;5067818;28;20029;-58
2024/02/17 04:43:27;;;;;;;25.67;14.30;;;10.20;99.90;;;;;;5068757;28;20382;-58
2024/02/17 04:45:52;;;;;;;28.70;16.17;;;10.20;99.90;;;;;;5066627;28;20016;-58
2024/02/17 04:48:18;;;;;;;25.70;14.63;;;10.20;99.90;;;;;;5068055;28;20398;-58
2024/02/17 04:50:44;;;;;;;26.02;14.73;;;10.10;99.90;;;;;;5067233;28;20039;-58
2024/02/17 04:53:09;;;;;;;25.05;14.88;;;10.10;99.90;;;;;;5068567;28;20025;-58
2024/02/17 04:55:35;;;;;;;20.40;12.65;;;10.10;99.90;;;;;;5068644;28;20048;-58
2024/02/17 04:58:00;;;;;;;21.30;13.40;;;10.10;99.90;;;;;;5067833;28;20029;-58
2024/02/17 05:00:26;;;;;;;20.08;12.00;;;10.10;99.90;;;;;;5067769;28;20121;-58
2024/02/17 05:02:51;;;;;;;22.73;12.15;;;10.10;99.90;;;;;;5067938;28;20236;-58
2024/02/17 05:05:19;;;;;;;21.10;12.50;;;10.10;99.90;;;;;;5067967;28;20200;-58
2024/02/17 05:07:48;;;;;;;17.95;10.93;;;10.10;99.90;;;;;;5067716;28;20024;-58
2024/02/17 05:10:13;;;;;;;21.42;11.43;;;10.10;99.90;;;;;;5066267;28;20032;-58
2024/02/17 05:12:39;;;;;;;19.15;11.45;;;10.10;99.90;;;;;;5067755;28;20352;-58
2024/02/17 05:15:05;;;;;;;16.05;10.43;;;10.00;99.90;;;;;;5067256;28;20025;-58
2024/02/17 05:17:31;;;;;;;15.50;9.70;;;10.00;99.90;;;;;;5067428;28;20020;-58
2024/02/17 05:19:57;;;;;;;20.80;10.75;;;10.00;99.90;;;;;;5066481;28;20023;-58
2024/02/17 05:22:22;;;;;;;18.95;10.48;;;10.00;99.90;;;;;;5067445;28;20547;-58
2024/02/17 05:24:48;;;;;;;19.90;10.30;;;10.00;99.90;;;;;;5071430;28;20048;-58
2024/02/17 05:27:14;;;;;;;16.83;9.40;;;10.00;99.90;;;;;;5071465;28;20020;-58
2024/02/17 05:29:40;;;;;;;16.63;9.55;;;9.90;99.90;;;;;;5071412;28;20064;-58
2024/02/17 05:32:07;;;;;;;14.63;9.48;;;9.90;99.90;;;;;;5071360;28;20604;-58
2024/02/17 05:34:33;;;;;;;17.63;10.48;;;9.90;99.90;;;;;;5069774;28;20025;-58
2024/02/17 05:36:59;;;;;;;19.23;9.68;;;9.90;99.90;;;;;;5070726;28;20028;-58
2024/02/17 05:39:24;;;;;;;19.27;10.63;;;9.90;99.90;;;;;;5070713;28;20505;-58
2024/02/17 05:41:51;;;;;;;18.88;10.18;;;9.90;99.90;;;;;;5070734;28;20044;-58
2024/02/17 05:44:16;;;;;;;15.15;9.65;;;9.90;99.90;;;;;;5070703;28;20024;-58
2024/02/17 05:46:42;;;;;;;16.58;9.13;;;9.90;99.90;;;;;;5089535;28;20040;-58
2024/02/17 05:49:08;;;;;;;16.38;9.38;;;9.90;99.90;;;;;;5079786;28;20016;-58
2024/02/17 05:51:34;;;;;;;17.63;9.10;;;9.90;99.90;;;;;;5079088;28;20579;-57
2024/02/17 05:53:59;;;;;;;17.85;10.43;;;9.90;99.90;;;;;;5083638;28;20049;-57
2024/02/17 05:56:25;;;;;;;19.27;9.70;;;9.90;99.90;;;;;;5082479;28;20125;-56
2024/02/17 05:58:50;;;;;;;18.83;8.75;;;9.80;99.90;;;;;;5074384;28;20469;-56
2024/02/17 06:01:16;;;;;;;18.67;9.20;;;9.80;99.90;;;;;;5075404;28;20020;-56
2024/02/17 06:03:41;;;;;;;14.70;7.70;;;9.80;99.90;;;;;;5078617;28;20029;-57
2024/02/17 06:06:07;;;;;;;16.30;8.02;;;9.80;99.90;;;;;;5078879;28;20035;-56
2024/02/17 06:08:32;;;;;;;13.75;7.68;;;9.80;99.90;;;;;;5077432;28;20115;-56
2024/02/17 06:10:58;;;;;;;12.85;7.25;;;9.80;99.90;;;;;;5082694;28;20032;-56
2024/02/17 06:13:24;;;;;;;14.88;7.88;;;9.80;99.90;;;;;;5077470;28;20032;-57
2024/02/17 06:15:50;;;;;;;14.68;8.20;;;9.80;99.90;;;;;;5079814;28;20385;-58
2024/02/17 06:21:13;;;;;;;16.65;8.90;;;9.80;99.90;;;;;;5078293;28;20125;-58
2024/02/17 06:23:43;;;;;;;21.27;9.73;;;9.80;99.90;;;;;;5078118;28;20012;-58
2024/02/17 06:26:27;;;;;;;15.05;8.65;;;9.80;99.90;;;;;;5069142;28;20021;-58
2024/02/17 06:28:54;;;;;;;13.98;8.40;;;9.80;99.90;;;;;;5062279;28;20434;-58
2024/02/17 06:31:20;;;;;;;19.70;8.60;;;9.80;99.90;;;;;;5085276;28;20512;-58
2024/02/17 06:33:46;;;;;;;16.73;9.30;;;9.80;99.90;;;;;;5080381;28;20028;-58
2024/02/17 06:36:12;;;;;;;18.05;9.00;;;9.80;99.90;;;;;;5081992;28;20031;-58
2024/02/17 06:38:38;;;;;;;16.25;9.02;;;9.80;99.90;;;;;;5071433;28;20025;-58
2024/02/17 06:41:03;;;;;;;14.50;8.40;;;9.70;99.90;;;;;;5089229;28;20020;-58
2024/02/17 06:43:32;;;;;;;18.10;10.80;;;9.80;99.90;;;;;;5087905;28;20028;-58
2024/02/17 06:46:01;;;;;;;17.40;8.75;;;9.80;99.90;;;;;;5073842;28;20020;-58
2024/02/17 06:48:27;;;;;;;16.20;8.88;;;9.80;99.90;;;;;;5088426;28;20019;-58
2024/02/17 06:50:53;;;;;;;19.40;9.75;;;9.70;99.90;;;;;;5072064;28;20020;-58
2024/02/17 06:53:19;;;;;;;18.55;9.98;;;9.70;99.90;;;;;;5069494;28;20024;-57
2024/02/17 06:55:45;;;;;;;17.45;8.68;;;9.70;99.90;;;;;;5073404;28;20021;-58
2024/02/17 06:58:11;;;;;;;20.08;8.88;;;9.70;99.90;;;;;;5075577;28;20103;-58
2024/02/17 07:00:36;;;;;;;22.63;9.15;;;9.70;99.90;;;;;;5070288;28;20526;-58
2024/02/17 07:03:04;;;;;;;15.82;8.32;;;9.70;99.90;;;;;;5076340;28;20115;-58
2024/02/17 07:05:29;;;;;;;17.50;8.77;;;9.70;99.90;;;;;;5076852;28;20491;-58
2024/02/17 07:07:55;;;;;;;14.50;8.00;;;9.70;99.90;;;;;;5071105;28;20028;-58
2024/02/17 07:10:20;;;;;;;16.33;8.25;;;9.70;99.90;;;;;;5083736;28;20031;-58
2024/02/17 07:12:46;;;;;;;13.68;8.45;;;9.70;99.90;;;;;;5079155;28;20024;-58
2024/02/17 07:15:11;;;;;;;13.40;7.65;;;9.70;99.90;;;;;;5081998;28;20713;-58
2024/02/17 07:17:37;;;;;;;11.00;6.88;;;9.80;99.90;;;;;;5069673;28;20424;-58
2024/02/17 07:20:04;;;;;;;16.35;7.38;;;9.80;99.90;;;;;;5079805;28;20267;-58
2024/02/17 07:22:30;;;;;;;15.10;7.45;;;9.80;99.90;;;;;;5078142;28;20036;-58
2024/02/17 07:24:56;;;;;;;11.13;7.18;;;9.70;99.90;;;;;;5079311;28;20418;-58
2024/02/17 07:27:22;;;;;;;15.48;6.43;;;9.70;99.90;;;;;;5080606;28;20021;-58
2024/02/17 07:29:48;;;;;;;13.85;7.72;;;9.70;99.90;;;;;;5070944;28;20119;-58
2024/02/17 07:32:14;;;;;;;14.45;7.05;;;9.70;99.90;;;;;;5081593;28;20016;-58
2024/02/17 07:34:42;;;;;;;13.20;6.30;;;9.80;99.90;;;;;;5075734;28;20035;-58
2024/02/17 07:37:07;;;;;;;10.57;5.85;;;9.80;99.90;;;;;;5079455;28;20031;-58
2024/02/17 07:39:35;;;;;;;8.40;4.28;;;9.70;99.90;;;;;;5085450;28;20032;-58
2024/02/17 07:42:01;;;;;;;6.43;4.18;;;9.80;99.90;;;;;;5068997;28;20017;-58
2024/02/17 07:44:27;;;;;;;7.85;4.65;;;9.70;99.90;;;;;;5068397;28;20062;-58
2024/02/17 07:46:52;;;;;;;8.85;4.28;;;9.70;99.90;;;;;;5077997;28;20036;-58
2024/02/17 07:49:18;;;;;;;6.65;3.92;;;9.70;99.90;;;;;;5081185;28;20501;-58
2024/02/17 07:51:44;;;;;;;6.82;3.53;;;9.70;99.90;;;;;;5076627;28;20074;-58
2024/02/17 07:54:09;;;;;;;5.32;3.35;;;9.70;99.90;;;;;;5073551;28;20016;-58
2024/02/17 07:56:35;;;;;;;5.20;2.92;;;9.70;99.90;;;;;;5077305;28;20035;-59
2024/02/17 07:59:01;;;;;;;4.65;2.40;;;9.70;99.90;;;;;;5075659;28;20141;-58
2024/02/17 08:01:26;;;;;;;3.75;2.60;;;9.70;99.90;;;;;;5082552;28;20466;-58
2024/02/17 08:03:52;;;;;;;6.80;2.60;;;9.70;99.90;;;;;;5070515;28;20039;-58
2024/02/17 08:06:21;;;;;;;2.90;2.40;;;9.70;99.90;;;;;;5079766;28;20024;-58
2024/02/17 08:08:50;;;;;;;4.70;2.65;;;9.80;99.90;;;;;;5074619;28;20028;-58
2024/02/17 08:11:16;;;;;;;6.40;3.22;;;9.80;99.90;;;;;;5074957;28;20025;-58
2024/02/17 08:13:42;;;;;;;5.72;2.55;;;9.70;99.90;;;;;;5068476;28;20562;-58
2024/02/17 08:16:08;;;;;;;6.05;3.00;;;9.80;99.90;;;;;;5072705;28;20418;-57
2024/02/17 08:18:34;;;;;;;5.78;2.97;;;9.80;99.90;;;;;;5083320;28;20020;-57
2024/02/17 08:21:02;;;;;;;4.90;3.00;;;9.90;99.90;;;;;;5068017;28;20278;-57
2024/02/17 08:23:28;;;;;;;4.65;2.40;;;9.80;99.90;;;;;;5074632;28;20016;-57
2024/02/17 08:25:54;;;;;;;5.78;2.58;;;9.80;99.90;;;;;;5072494;28;20025;-58
2024/02/17 08:28:20;;;;;;;4.65;2.30;;;9.80;99.90;;;;;;5067987;28;20035;-58
2024/02/17 08:30:45;;;;;;;6.15;2.55;;;9.80;99.90;;;;;;5074117;28;20100;-58
2024/02/17 08:33:11;;;;;;;4.68;2.13;;;9.90;99.90;;;;;;5067958;28;20019;-58
2024/02/17 08:35:37;;;;;;;3.05;2.22;;;9.90;99.90;;;;;;5073996;28;20422;-58
2024/02/17 08:38:03;;;;;;;3.05;2.30;;;9.90;99.90;;;;;;5064525;28;20031;-58
2024/02/17 08:40:29;;;;;;;3.40;2.03;;;9.90;99.90;;;;;;5070302;28;20132;-58
2024/02/17 08:42:54;;;;;;;9.60;3.00;;;9.90;99.90;;;;;;5076711;28;20111;-58
2024/02/17 08:45:20;;;;;;;3.03;2.40;;;9.90;99.90;;;;;;5075833;28;20019;-58
2024/02/17 08:47:46;;;;;;;4.93;1.90;;;10.00;99.90;;;;;;5073997;28;20025;-57
2024/02/17 08:50:11;;;;;;;4.57;2.28;;;10.00;99.90;;;;;;5077501;28;20085;-57
2024/02/17 08:52:37;;;;;;;3.95;2.35;;;10.00;99.90;;;;;;5066720;28;20039;-58
2024/02/17 08:55:03;;;;;;;4.43;2.03;;;10.10;99.90;;;;;;5070069;28;20063;-58
2024/02/17 08:57:28;;;;;;;5.60;2.38;;;10.10;99.90;;;;;;5069947;28;20029;-58
2024/02/17 08:59:54;;;;;;;3.78;1.67;;;10.10;99.90;;;;;;5072386;28;20082;-57
2024/02/17 09:02:19;;;;;;;3.53;2.08;;;10.10;99.90;;;;;;5072490;28;20055;-58
2024/02/17 09:04:45;;;;;;;4.47;1.75;;;10.10;99.90;;;;;;5067639;28;20028;-57
2024/02/17 09:07:11;;;;;;;3.40;2.75;;;10.10;99.90;;;;;;5076766;28;20505;-57
2024/02/17 09:09:37;;;;;;;3.22;1.70;;;10.10;99.90;;;;;;5069658;28;20209;-57
2024/02/17 09:12:03;;;;;;;4.43;2.17;;;10.10;99.90;;;;;;5071033;28;20560;-57
2024/02/17 09:14:33;;;;;;;4.30;2.67;;;10.10;99.90;;;;;;5082313;28;20051;-57
2024/02/17 09:16:59;;;;;;;6.53;2.47;;;10.10;99.90;;;;;;5073441;28;20103;-57
2024/02/17 09:19:25;;;;;;;6.90;2.92;;;10.10;99.90;;;;;;5074727;28;20443;-57
2024/02/17 09:21:52;;;;;;;6.32;2.72;;;10.00;99.90;;;;;;5074950;28;20033;-58
2024/02/17 09:24:20;;;;;;;9.88;3.00;;;10.10;99.90;;;;;;5072928;28;20278;-58
2024/02/17 09:26:46;;;;;;;5.85;2.70;;;10.00;99.90;;;;;;5067907;28;20035;-58
2024/02/17 09:29:12;;;;;;;8.75;2.83;;;10.00;99.90;;;;;;5078386;28;20021;-58
2024/02/17 09:31:37;;;;;;;9.10;3.10;;;9.90;99.90;;;;;;5066975;28;20021;-57
2024/02/17 09:34:03;;;;;;;9.15;2.72;;;9.90;99.90;;;;;;5066624;28;20036;-58
2024/02/17 09:36:29;;;;;;;4.35;2.60;;;9.90;99.90;;;;;;5067191;28;20139;-58
2024/02/17 09:38:54;;;;;;;6.10;2.47;;;9.80;99.90;;;;;;5068641;28;20029;-58
2024/02/17 09:41:20;;;;;;;7.63;2.60;;;9.80;99.90;;;;;;5082533;28;20031;-58
2024/02/17 09:43:46;;;;;;;7.38;3.40;;;9.80;99.90;;;;;;5072027;28;20104;-58
2024/02/17 09:46:13;;;;;;;6.63;2.88;;;9.80;99.90;;;;;;5072606;28;20074;-58
2024/02/17 09:48:39;;;;;;;6.88;2.50;;;9.80;99.90;;;;;;5072831;28;20043;-58
2024/02/17 09:51:06;;;;;;;6.05;2.53;;;9.80;99.90;;;;;;5067084;28;20442;-58
2024/02/17 09:53:32;;;;;;;8.77;2.22;;;9.90;99.90;;;;;;5067124;28;20296;-58
2024/02/17 09:55:59;;;;;;;4.50;2.60;;;10.00;99.90;;;;;;5076583;28;20351;-58
2024/02/17 09:58:25;;;;;;;8.13;3.05;;;10.20;99.90;;;;;;5078048;28;20369;-58
2024/02/17 10:00:51;;;;;;;6.93;2.05;;;10.30;99.90;;;;;;5072822;28;20020;-58
2024/02/17 10:03:22;;;;;;;4.30;2.03;;;10.50;99.90;;;;;;5072937;28;20082;-58
2024/02/17 10:05:48;;;;;;;9.05;2.13;;;10.60;99.90;;;;;;5075408;28;20079;-58
2024/02/17 10:08:13;;;;;;;3.95;1.98;;;10.70;99.90;;;;;;5075948;28;20023;-57
2024/02/17 10:10:43;;;;;;;5.53;2.30;;;10.80;99.90;;;;;;5077114;28;20031;-58
2024/02/17 10:13:16;;;;;;;4.60;2.28;;;11.00;99.90;;;;;;5085015;28;20224;-58
2024/02/17 10:15:41;;;;;;;3.83;2.20;;;11.30;99.90;;;;;;5075416;28;20161;-58
2024/02/17 10:18:07;;;;;;;4.45;1.95;;;11.70;99.90;;;;;;5081217;28;20550;-58
2024/02/17 10:20:32;;;;;;;4.55;1.83;;;11.90;99.90;;;;;;5081272;28;20024;-58
2024/02/17 10:22:58;;;;;;;3.05;2.10;;;12.10;99.90;;;;;;5070529;28;20028;-58
2024/02/17 10:25:23;;;;;;;2.42;1.70;;;12.50;99.90;;;;;;5075570;28;20020;-58
2024/02/17 10:27:49;;;;;;;5.88;1.70;;;12.80;99.90;;;;;;5070556;28;20041;-58
2024/02/17 10:30:16;;;;;;;6.07;1.65;;;13.20;99.90;;;;;;5080678;28;20016;-58
2024/02/17 10:32:41;;;;;;;3.35;1.70;;;13.50;99.90;;;;;;5075768;28;20023;-58
2024/02/17 10:35:08;;;;;;;3.75;1.65;;;14.10;99.90;;;;;;5074104;28;20255;-58
2024/02/17 10:37:35;;;;;;;3.35;1.10;;;15.60;99.90;;;;;;5080914;28;20020;-59
2024/02/17 10:40:05;;;;;;;1.88;1.27;;;17.50;99.20;;;;;;5080425;28;20107;-59
2024/02/17 10:42:31;;;;;;;2.08;1.25;;;17.90;95.40;;;;;;5070404;28;20019;-58
2024/02/17 10:45:00;;;;;;;3.97;1.30;;;17.70;93.70;;;;;;5074907;28;20032;-58
2024/02/17 10:47:28;;;;;;;2.65;1.30;;;16.60;94.80;;;;;;5075276;28;20067;-58
2024/02/17 10:50:13;;;;;;;2.70;1.45;;;15.60;95.80;;;;;;5076298;28;20338;-58
2024/02/17 10:53:07;;;;;;;3.58;1.40;;;14.40;97.90;;;;;;5081883;28;20020;-58
2024/02/17 10:55:38;;;;;;;3.75;1.50;;;13.90;99.90;;;;;;5068648;28;20041;-58
2024/02/17 10:58:10;;;;;;;4.72;1.80;;;13.30;99.90;;;;;;5079943;28;20469;-58
2024/02/17 11:00:44;;;;;;;2.20;1.58;;;12.90;99.90;;;;;;5069429;28;20017;-58
2024/02/17 11:03:12;;;;;;;2.65;1.75;;;12.40;99.90;;;;;;5074460;28;20095;-58
2024/02/17 11:05:41;;;;;;;4.57;1.88;;;12.30;99.90;;;;;;5067649;28;20474;-58
2024/02/17 11:08:07;;;;;;;3.58;1.77;;;12.30;99.90;;;;;;5077244;28;20082;-58
2024/02/17 11:10:32;;;;;;;3.35;1.83;;;12.10;99.90;;;;;;5076950;28;20048;-58
2024/02/17 11:12:59;;;;;;;2.53;1.92;;;12.20;99.90;;;;;;5075839;28;20071;-58
2024/02/17 11:15:26;;;;;;;6.95;1.85;;;12.60;99.90;;;;;;5077254;28;20062;-58
2024/02/17 11:17:57;;;;;;;4.55;2.33;;;12.80;99.90;;;;;;5074402;28;20020;-58
2024/02/17 11:20:23;;;;;;;6.05;1.58;;;13.10;99.90;;;;;;5082083;28;20103;-58
2024/02/17 11:22:52;;;;;;;2.83;1.70;;;13.00;99.90;;;;;;5074053;28;20021;-58
2024/02/17 11:25:31;;;;;;;1.98;1.58;;;13.20;99.90;;;;;;5073644;28;20020;-58
2024/02/17 11:27:58;;;;;;;2.13;1.92;;;13.50;99.90;;;;;;5070110;28;20032;-58
2024/02/17 11:30:25;;;;;;;2.65;1.27;;;13.70;99.90;;;;;;5073741;28;20016;-58
2024/02/17 11:33:03;;;;;;;1.63;1.17;;;14.70;99.90;;;;;;5065556;28;20017;-58
2024/02/17 11:35:30;;;;;;;3.50;1.67;;;14.60;98.50;;;;;;5068581;28;20038;-58
2024/02/17 11:37:58;;;;;;;2.20;1.00;;;14.70;99.30;;;;;;5078933;28;20485;-58
2024/02/17 11:40:25;;;;;;;1.80;1.20;;;16.10;98.30;;;;;;5072322;28;20038;-58
2024/02/17 11:42:54;;;;;;;5.15;1.27;;;16.30;94.90;;;;;;5069980;28;20052;-58
2024/02/17 11:45:22;;;;;;;3.58;1.08;;;16.60;94.60;;;;;;5067157;28;20244;-58
2024/02/17 11:47:49;;;;;;;4.75;0.90;;;17.80;92.80;;;;;;5078067;28;20051;-58
2024/02/17 11:50:14;;;;;;;1.08;0.88;;;17.20;92.50;;;;;;5076245;28;20440;-58
2024/02/17 11:52:43;;;;;;;2.00;0.80;;;16.40;93.00;;;;;;5074691;28;20048;-58
2024/02/17 11:55:11;;;;;;;3.35;0.88;;;16.30;92.40;;;;;;5072691;28;20051;-58
2024/02/17 11:57:39;;;;;;;0.93;0.80;;;15.90;93.70;;;;;;5077392;28;20027;-58
2024/02/17 12:00:09;;;;;;;1.52;0.98;;;15.80;93.50;;;;;;5071262;28;20021;-58
2024/02/17 12:02:35;;;;;;;;;;;16.80;93.50;;;;;;5068896;28;20103;-59
2024/02/17 12:05:02;;;;;;;2.15;0.90;;;18.10;92.50;;;;;;5068165;28;20226;-59
2024/02/17 12:07:30;;;;;;;1.83;0.82;;;19.00;90.50;;;;;;5067078;28;20120;-59
2024/02/17 12:09:56;;;;;;;1.85;0.90;;;20.20;85.70;;;;;;5066860;28;20035;-58
2024/02/17 12:12:21;;;;;;;1.30;0.80;;;20.70;80.00;;;;;;5070363;28;20104;-59
2024/02/17 12:14:47;;;;;;;1.33;0.95;;;20.50;78.10;;;;;;5071452;28;20028;-58
2024/02/17 12:17:12;;;;;;;1.38;0.90;;;19.40;80.30;;;;;;5068602;28;20535;-58
2024/02/17 12:19:38;;;;;;;1.25;1.15;;;18.70;83.50;;;;;;5076326;28;20069;-58
2024/02/17 12:22:06;;;;;;;2.88;0.90;;;18.70;81.80;;;;;;5073262;28;20103;-58
2024/02/17 12:24:32;;;;;;;3.38;0.90;;;18.30;83.40;;;;;;5074163;28;20482;-58
2024/02/17 12:26:58;;;;;;;2.40;0.90;;;18.10;85.30;;;;;;5072105;28;20028;-58
2024/02/17 12:29:23;;;;;;;1.77;1.10;;;17.60;84.90;;;;;;5071954;28;20051;-58
2024/02/17 12:31:51;;;;;;;1.40;0.82;;;17.70;85.30;;;;;;5071397;28;20240;-58
2024/02/17 12:34:31;;;;;;;1.05;0.80;;;18.20;85.10;;;;;;5074115;28;20135;-58
2024/02/17 12:36:57;;;;;;;3.00;0.93;;;17.60;84.70;;;;;;5064488;28;20024;-58
2024/02/17 12:39:25;;;;;;;1.60;0.80;;;16.90;87.10;;;;;;5068298;28;20044;-58